createdAt,value
2023-03-13T03:47:45.632Z,99626.06
2023-03-13T03:50:12.277Z,99620.56
2023-03-13T03:52:48.544Z,99611.81
2023-03-13T03:55:15.456Z,99611.03
2023-03-13T03:57:42.225Z,99607.94
2023-03-13T04:00:16.001Z,99619.44
2023-03-13T04:02:47.754Z,99603.13
2023-03-13T04:05:14.437Z,99590.88
2023-03-13T04:07:41.080Z,99592.50
2023-03-13T04:10:08.073Z,99600.56
2023-03-13T04:12:39.662Z,99602.44
2023-03-13T04:15:06.628Z,99603.44
2023-03-13T04:17:33.468Z,99594.72
2023-03-13T04:20:00.265Z,99592.31
2023-03-13T04:22:28.508Z,99591.31
2023-03-13T04:24:58.096Z,99593.59
2023-03-13T04:27:24.696Z,99579.25
2023-03-13T04:29:52.086Z,99586.81
2023-03-13T04:32:31.387Z,99577.44
2023-03-13T04:35:05.377Z,99586.66
2023-03-13T04:37:42.237Z,99573.38
2023-03-13T04:40:14.856Z,99579.38
2023-03-13T04:42:59.019Z,99562.91
2023-03-13T04:45:44.347Z,99571.13
2023-03-13T04:48:28.916Z,99567.25
2023-03-13T04:51:14.156Z,99553.00
2023-03-13T04:54:06.929Z,99562.25
2023-03-13T04:56:56.578Z,99554.00
2023-03-13T04:59:30.696Z,99542.53
2023-03-13T05:02:25.729Z,99556.44
2023-03-13T05:05:12.629Z,99559.19
2023-03-13T05:07:57.546Z,99555.75
2023-03-13T05:10:33.630Z,99563.34
2023-03-13T05:13:13.991Z,99557.69
2023-03-13T05:16:08.860Z,99551.72
2023-03-13T05:18:54.842Z,99559.00
2023-03-13T05:21:34.676Z,99544.94
2023-03-13T05:24:01.196Z,99554.00
2023-03-13T05:26:43.650Z,99551.06
2023-03-13T05:29:10.164Z,99544.91
2023-03-13T05:31:55.448Z,99524.47
2023-03-13T05:34:40.900Z,99535.78
2023-03-13T05:37:27.371Z,99539.22
2023-03-13T05:40:06.144Z,99529.34
2023-03-13T05:42:53.033Z,99519.78
2023-03-13T05:45:45.876Z,99510.59
2023-03-13T05:48:35.544Z,99515.06
2023-03-13T05:51:26.036Z,99513.00
2023-03-13T05:54:15.432Z,99511.25
2023-03-13T05:57:14.442Z,99509.78
2023-03-13T05:59:54.039Z,99522.53
2023-03-13T06:02:39.989Z,99515.69
2023-03-13T06:05:09.370Z,99521.84
2023-03-13T06:07:38.238Z,99522.53
2023-03-13T06:10:05.256Z,99528.94
2023-03-13T06:12:32.042Z,99526.19
2023-03-13T06:14:59.484Z,99514.75
2023-03-13T06:17:46.277Z,99493.84
2023-03-13T06:20:13.063Z,99517.28
2023-03-13T06:22:39.634Z,99495.25
2023-03-13T06:25:06.776Z,99520.97
2023-03-13T06:27:33.356Z,99522.78
2023-03-13T06:29:59.900Z,99517.28
2023-03-13T06:32:26.500Z,99519.72
2023-03-13T06:34:53.138Z,99531.50
2023-03-13T06:37:19.691Z,99514.50
2023-03-13T06:39:46.274Z,99519.16
2023-03-13T06:42:12.892Z,99526.69
2023-03-13T06:44:39.484Z,99534.44
2023-03-13T06:47:06.156Z,99537.66
2023-03-13T06:49:32.847Z,99534.69
2023-03-13T06:51:59.461Z,99529.56
2023-03-13T06:54:26.033Z,99504.44
2023-03-13T06:56:52.594Z,99519.09
2023-03-13T06:59:19.165Z,99508.72
2023-03-13T07:01:46.185Z,99492.66
2023-03-13T07:04:13.063Z,99516.34
2023-03-13T07:06:39.697Z,99507.09
2023-03-13T07:09:06.328Z,99499.88
2023-03-13T07:11:32.928Z,99471.34
2023-03-13T07:14:15.166Z,99479.50
2023-03-13T07:16:43.366Z,99477.09
2023-03-13T07:19:10.649Z,99485.94
2023-03-13T07:21:37.342Z,99467.72
2023-03-13T07:24:04.296Z,99449.75
2023-03-13T07:26:30.932Z,99456.84
2023-03-13T07:28:57.563Z,99463.00
2023-03-13T07:31:24.693Z,99453.91
2023-03-13T07:33:56.221Z,99457.44
2023-03-13T07:36:23.047Z,99464.09
2023-03-13T07:38:49.752Z,99466.00
2023-03-13T07:41:16.731Z,99468.09
2023-03-13T07:43:43.390Z,99471.72
2023-03-13T07:46:12.327Z,99472.66
2023-03-13T07:48:40.286Z,99478.41
2023-03-13T07:51:09.064Z,99486.22
2023-03-13T07:53:36.054Z,99498.78
2023-03-13T07:56:07.683Z,99504.28
2023-03-13T07:58:35.487Z,99496.53
2023-03-13T08:01:07.769Z,99509.13
2023-03-13T08:03:34.458Z,99496.94
2023-03-13T08:06:05.843Z,99508.78
2023-03-13T08:08:32.559Z,99511.75
2023-03-13T08:11:20.079Z,99510.72
2023-03-13T08:13:46.803Z,99516.88
2023-03-13T08:16:21.012Z,99512.28
2023-03-13T08:18:49.056Z,99501.53
2023-03-13T08:21:17.246Z,99500.94
2023-03-13T08:23:43.883Z,99511.00
2023-03-13T08:26:12.261Z,99522.59
2023-03-13T08:28:39.427Z,99508.31
2023-03-13T08:31:13.918Z,99530.03
2023-03-13T08:33:40.662Z,99506.78
2023-03-13T08:36:18.690Z,99523.13
2023-03-13T08:38:46.472Z,99529.09
2023-03-13T08:41:14.509Z,99518.78
2023-03-13T08:43:41.287Z,99532.69
2023-03-13T08:46:08.048Z,99532.03
2023-03-13T08:48:34.706Z,99531.09
2023-03-13T08:51:12.091Z,99512.41
2023-03-13T08:53:39.017Z,99535.81
2023-03-13T08:56:06.254Z,99524.00
2023-03-13T08:58:32.899Z,99512.19
2023-03-13T09:01:07.215Z,99524.25
2023-03-13T09:03:36.767Z,99516.47
2023-03-13T09:06:03.920Z,99512.59
2023-03-13T09:08:31.067Z,99519.03
2023-03-13T09:11:09.263Z,99513.53
2023-03-13T09:13:37.508Z,99505.03
2023-03-13T09:16:11.580Z,99514.41
2023-03-13T09:18:38.167Z,99507.09
2023-03-13T09:21:07.158Z,99498.38
2023-03-13T09:23:33.798Z,99503.41
2023-03-13T09:26:00.426Z,99495.03
2023-03-13T09:28:27.100Z,99506.84
2023-03-13T09:30:54.042Z,99505.09
2023-03-13T09:33:22.815Z,99502.81
2023-03-13T09:35:51.070Z,99500.53
2023-03-13T09:38:18.626Z,99495.84
2023-03-13T09:40:59.803Z,99500.22
2023-03-13T09:44:00.370Z,99495.97
2023-03-13T09:46:49.766Z,99505.63
2023-03-13T09:49:36.249Z,99505.75
2023-03-13T09:52:26.782Z,99498.72
2023-03-13T09:54:59.000Z,99494.19
2023-03-13T09:57:47.513Z,99478.97
2023-03-13T10:00:25.959Z,99479.63
2023-03-13T10:03:12.877Z,99473.59
2023-03-13T10:06:06.890Z,99476.41
2023-03-13T10:08:34.581Z,99464.34
2023-03-13T10:11:04.080Z,99460.59
2023-03-13T10:14:02.760Z,99456.50
2023-03-13T10:16:51.066Z,99455.34
2023-03-13T10:19:18.469Z,99453.63
2023-03-13T10:21:47.381Z,99438.00
2023-03-13T10:24:18.743Z,99441.75
2023-03-13T10:26:45.301Z,99450.81
2023-03-13T10:29:21.421Z,99440.63
2023-03-13T10:32:04.143Z,99437.00
2023-03-13T10:34:58.216Z,99422.91
2023-03-13T10:37:28.796Z,99424.97
2023-03-13T10:39:55.588Z,99421.44
2023-03-13T10:42:26.744Z,99414.66
2023-03-13T10:44:59.100Z,99421.31
2023-03-13T10:47:25.764Z,99396.22
2023-03-13T10:49:55.794Z,99404.03
2023-03-13T10:52:35.842Z,99396.22
2023-03-13T10:55:06.623Z,99389.13
2023-03-13T10:57:34.715Z,99388.66
2023-03-13T11:00:06.293Z,99381.91
2023-03-13T11:02:37.265Z,99379.63
2023-03-13T11:05:28.425Z,99352.56
2023-03-13T11:07:55.113Z,99360.50
2023-03-13T11:10:23.480Z,99357.06
2023-03-13T11:12:54.293Z,99356.06
2023-03-13T11:15:29.585Z,99343.56
2023-03-13T11:18:10.789Z,99344.28
2023-03-13T11:20:38.757Z,99332.75
2023-03-13T11:23:08.282Z,99325.09
2023-03-13T11:25:41.872Z,99312.72
2023-03-13T11:28:12.264Z,99314.66
2023-03-13T11:31:03.631Z,99310.84
2023-03-13T11:33:36.124Z,99307.19
2023-03-13T11:36:03.750Z,99295.50
2023-03-13T11:38:38.252Z,99291.69
2023-03-13T11:41:45.351Z,99274.41
2023-03-13T11:44:38.271Z,99275.19
2023-03-13T11:47:22.946Z,99277.63
2023-03-13T11:50:00.621Z,99267.41
2023-03-13T11:52:46.538Z,99235.47
2023-03-13T11:55:34.947Z,99233.72
2023-03-13T11:58:29.705Z,99230.38
2023-03-13T12:01:09.311Z,99214.81
2023-03-13T12:03:57.666Z,99211.22
2023-03-13T12:06:47.269Z,99198.13
2023-03-13T12:09:30.856Z,99200.97
2023-03-13T12:12:04.457Z,99194.78
2023-03-13T12:14:42.556Z,99181.25
2023-03-13T12:17:34.872Z,99183.72
2023-03-13T12:20:08.029Z,99175.38
2023-03-13T12:22:50.581Z,99161.53
2023-03-13T12:25:43.102Z,99154.44
2023-03-13T12:28:31.661Z,99151.88
2023-03-13T12:31:14.173Z,99135.38
2023-03-13T12:33:48.523Z,99148.66
2023-03-13T12:36:19.836Z,99140.97
2023-03-13T12:38:58.605Z,99104.50
2023-03-13T12:41:31.322Z,99123.25
2023-03-13T12:44:08.181Z,99106.25
2023-03-13T12:46:47.019Z,99109.03
2023-03-13T12:49:32.418Z,99097.22
2023-03-13T12:52:29.896Z,99104.41
2023-03-13T12:54:56.352Z,99094.09
2023-03-13T12:57:28.157Z,99085.13
2023-03-13T12:59:56.461Z,99078.03
2023-03-13T13:02:24.575Z,99082.59
2023-03-13T13:04:52.727Z,99061.75
2023-03-13T13:07:30.146Z,99071.97
2023-03-13T13:10:09.062Z,99056.44
2023-03-13T13:12:46.038Z,99041.25
2023-03-13T13:15:12.773Z,99045.16
2023-03-13T13:17:39.352Z,99039.47
2023-03-13T13:20:26.969Z,99033.00
2023-03-13T13:22:53.611Z,99029.78
2023-03-13T13:25:31.051Z,99023.47
2023-03-13T13:28:31.012Z,99003.03
2023-03-13T13:30:57.838Z,99000.03
2023-03-13T13:33:30.993Z,98994.78
2023-03-13T13:36:23.318Z,98978.97
2023-03-13T13:38:56.830Z,98960.63
2023-03-13T13:41:28.352Z,98960.97
2023-03-13T13:44:27.104Z,98960.41
2023-03-13T13:46:54.585Z,98943.03
2023-03-13T13:49:22.463Z,98938.84
2023-03-13T13:52:12.071Z,98933.78
2023-03-13T13:54:45.459Z,98919.31
2023-03-13T13:57:15.918Z,98922.78
2023-03-13T13:59:44.365Z,98907.25
2023-03-13T14:02:27.953Z,98908.63
2023-03-13T14:05:02.043Z,98906.25
2023-03-13T14:07:47.325Z,98899.13
2023-03-13T14:10:39.738Z,98891.41
2023-03-13T14:13:20.592Z,98871.34
2023-03-13T14:15:53.795Z,98878.44
2023-03-13T14:18:25.131Z,98852.00
2023-03-13T14:21:02.092Z,98864.66
2023-03-13T14:23:39.929Z,98863.22
2023-03-13T14:26:13.994Z,98865.13
2023-03-13T14:28:42.403Z,98832.34
2023-03-13T14:31:09.298Z,98840.19
2023-03-13T14:33:35.974Z,98844.44
2023-03-13T14:36:02.693Z,98839.75
2023-03-13T14:38:36.442Z,98829.97
2023-03-13T14:41:03.110Z,98832.34
2023-03-13T14:43:36.165Z,98820.19
2023-03-13T14:46:29.210Z,98805.03
2023-03-13T14:48:56.184Z,98795.69
2023-03-13T14:51:25.150Z,98783.50
2023-03-13T14:53:56.420Z,98766.56
2023-03-13T14:56:37.388Z,98761.69
2023-03-13T14:59:07.538Z,98753.78
2023-03-13T15:01:34.211Z,98755.09
2023-03-13T15:04:00.946Z,98741.38
2023-03-13T15:06:27.595Z,98744.59
2023-03-13T15:09:17.161Z,98746.25
2023-03-13T15:11:56.265Z,98738.78
2023-03-13T15:14:34.671Z,98730.16
2023-03-13T15:17:01.261Z,98711.03
2023-03-13T15:19:28.025Z,98707.69
2023-03-13T15:21:54.792Z,98677.09
2023-03-13T15:24:21.395Z,98706.59
2023-03-13T15:26:49.240Z,98700.72
2023-03-13T15:29:18.324Z,98683.31
2023-03-13T15:31:44.987Z,98689.25
2023-03-13T15:34:13.029Z,98690.38
2023-03-13T15:36:42.653Z,98697.31
2023-03-13T15:39:19.326Z,98688.19
2023-03-13T15:41:45.878Z,98703.91
2023-03-13T15:44:12.481Z,98691.47
2023-03-13T15:46:39.066Z,98688.25
2023-03-13T15:49:11.186Z,98695.22
2023-03-13T15:51:38.153Z,98677.53
2023-03-13T15:54:05.025Z,98684.63
2023-03-13T15:56:35.350Z,98676.81
2023-03-13T15:59:01.949Z,98673.19
2023-03-13T16:01:28.790Z,98649.56
2023-03-13T16:03:56.448Z,98662.19
2023-03-13T16:06:31.308Z,98649.44
2023-03-13T16:09:00.088Z,98651.03
2023-03-13T16:11:26.761Z,98639.16
2023-03-13T16:13:53.381Z,98636.78
2023-03-13T16:16:29.448Z,98635.97
2023-03-13T16:18:56.632Z,98643.88
2023-03-13T16:21:28.085Z,98619.75
2023-03-13T16:23:54.949Z,98614.63
2023-03-13T16:26:26.406Z,98624.97
2023-03-13T16:28:53.389Z,98619.75
2023-03-13T16:31:24.690Z,98617.72
2023-03-13T16:33:53.675Z,98606.25
2023-03-13T16:36:28.576Z,98613.84
2023-03-13T16:38:55.265Z,98611.75
2023-03-13T16:41:23.120Z,98606.91
2023-03-13T16:43:50.018Z,98608.94
2023-03-13T16:46:17.625Z,98632.53
2023-03-13T16:48:47.675Z,98649.78
2023-03-13T16:51:24.126Z,98653.53
2023-03-13T16:53:51.744Z,98680.88
2023-03-13T16:56:35.019Z,98665.53
2023-03-13T16:59:03.076Z,98660.69
2023-03-13T17:01:29.986Z,98667.34
2023-03-13T17:03:57.475Z,98700.56
2023-03-13T17:06:28.797Z,98677.91
2023-03-13T17:08:56.230Z,98656.16
2023-03-13T17:11:26.006Z,98653.34
2023-03-13T17:13:52.891Z,98659.66
2023-03-13T17:16:21.336Z,98658.88
2023-03-13T17:18:49.909Z,98662.13
2023-03-13T17:21:20.900Z,98655.81
2023-03-13T17:23:47.582Z,98658.13
2023-03-13T17:26:37.740Z,98656.22
2023-03-13T17:29:05.149Z,98662.13
2023-03-13T17:31:37.230Z,98662.91
2023-03-13T17:34:05.299Z,98649.19
2023-03-13T17:36:31.923Z,98670.56
2023-03-13T17:38:59.659Z,98663.41
2023-03-13T17:41:27.687Z,98657.03
2023-03-13T17:43:54.341Z,98656.16
2023-03-13T17:46:36.783Z,98649.84
2023-03-13T17:49:03.544Z,98652.09
2023-03-13T17:51:31.453Z,98620.97
2023-03-13T17:53:58.443Z,98611.13
2023-03-13T17:56:32.130Z,98604.78
2023-03-13T17:58:59.757Z,98603.16
2023-03-13T18:01:30.726Z,98628.75
2023-03-13T18:03:57.521Z,98645.19
2023-03-13T18:06:26.156Z,98666.47
2023-03-13T18:08:55.033Z,98682.44
2023-03-13T18:11:22.012Z,98698.06
2023-03-13T18:13:48.776Z,98674.59
2023-03-13T18:16:30.360Z,98644.44
2023-03-13T18:18:57.172Z,98640.03
2023-03-13T18:21:24.272Z,98574.59
2023-03-13T18:23:52.194Z,98595.72
2023-03-13T18:26:24.225Z,98594.91
2023-03-13T18:28:51.180Z,98589.72
2023-03-13T18:31:18.147Z,98624.31
2023-03-13T18:33:45.108Z,98661.28
2023-03-13T18:36:19.373Z,98649.41
2023-03-13T18:38:46.976Z,98646.78
2023-03-13T18:41:15.481Z,98611.78
2023-03-13T18:43:45.451Z,98600.84
2023-03-13T18:46:18.150Z,98599.28
2023-03-13T18:48:45.101Z,98602.75
2023-03-13T18:51:18.853Z,98633.94
2023-03-13T18:53:45.808Z,98627.59
2023-03-13T18:56:17.818Z,98654.00
2023-03-13T18:58:45.171Z,98661.34
2023-03-13T19:01:13.609Z,98681.91
2023-03-13T19:03:40.828Z,98713.75
2023-03-13T19:06:22.717Z,98733.81
2023-03-13T19:08:50.719Z,98758.19
2023-03-13T19:11:20.009Z,98769.53
2023-03-13T19:13:46.777Z,98775.13
2023-03-13T19:16:16.153Z,98772.22
2023-03-13T19:18:43.438Z,98793.97
2023-03-13T19:21:29.593Z,98799.16
2023-03-13T19:23:56.405Z,98824.25
2023-03-13T19:26:29.005Z,98844.66
2023-03-13T19:28:55.918Z,98850.16
2023-03-13T19:31:22.945Z,98865.06
2023-03-13T19:33:50.580Z,98854.72
2023-03-13T19:36:18.488Z,98838.13
2023-03-13T19:38:45.338Z,98862.63
2023-03-13T19:41:12.822Z,98881.44
2023-03-13T19:43:39.783Z,98878.31
2023-03-13T19:46:23.699Z,98856.22
2023-03-13T19:48:58.359Z,98862.63
2023-03-13T19:51:25.750Z,98848.25
2023-03-13T19:53:52.733Z,98870.50
2023-03-13T19:56:23.841Z,98837.25
2023-03-13T19:58:58.874Z,98847.53
2023-03-13T20:01:25.985Z,98843.63
2023-03-13T20:03:55.524Z,98847.16
2023-03-13T20:06:30.748Z,98827.41
2023-03-13T20:09:11.125Z,98832.25
2023-03-13T20:11:37.988Z,98817.19
2023-03-13T20:14:05.354Z,98816.09
2023-03-13T20:16:34.497Z,98793.94
2023-03-13T20:19:01.840Z,98790.88
2023-03-13T20:21:29.993Z,98800.38
2023-03-13T20:23:57.591Z,98766.94
2023-03-13T20:26:24.863Z,98737.28
2023-03-13T20:28:54.451Z,98729.22
2023-03-13T20:31:22.881Z,98715.00
2023-03-13T20:33:49.717Z,98704.19
2023-03-13T20:36:18.390Z,98739.78
2023-03-13T20:38:45.195Z,98699.63
2023-03-13T20:41:12.027Z,98727.00
2023-03-13T20:43:39.087Z,98724.53
2023-03-13T20:46:07.356Z,98721.06
2023-03-13T20:48:39.170Z,98694.63
2023-03-13T20:51:06.563Z,98703.72
2023-03-13T20:53:38.163Z,98731.97
2023-03-13T20:56:06.954Z,98724.47
2023-03-13T20:58:34.669Z,98720.50
2023-03-13T21:01:01.429Z,98715.78
2023-03-13T21:03:28.188Z,98675.97
2023-03-13T21:05:57.426Z,98681.22
2023-03-13T21:08:24.146Z,98685.53
2023-03-13T21:10:53.678Z,98694.81
2023-03-13T21:13:20.387Z,98698.00
2023-03-13T21:15:47.105Z,98683.59
2023-03-13T21:18:13.898Z,98703.97
2023-03-13T21:20:40.786Z,98693.31
2023-03-13T21:23:07.462Z,98696.44
2023-03-13T21:25:34.289Z,98684.63
2023-03-13T21:28:01.142Z,98679.22
2023-03-13T21:30:27.968Z,98681.44
2023-03-13T21:32:54.833Z,98680.72
2023-03-13T21:35:21.555Z,98685.69
2023-03-13T21:37:48.411Z,98692.50
2023-03-13T21:40:15.070Z,98683.31
2023-03-13T21:42:41.783Z,98663.09
2023-03-13T21:45:09.280Z,98688.59
2023-03-13T21:47:37.148Z,98676.00
2023-03-13T21:50:08.101Z,98667.31
2023-03-13T21:52:40.838Z,98656.31
2023-03-13T21:55:10.139Z,98663.44
2023-03-13T21:57:36.894Z,98642.16
2023-03-13T22:00:06.357Z,98650.81
2023-03-13T22:02:35.069Z,98660.22
2023-03-13T22:05:02.442Z,98657.84
2023-03-13T22:07:30.881Z,98656.25
2023-03-13T22:09:58.009Z,98657.78
2023-03-13T22:12:25.611Z,98660.53
2023-03-13T22:14:52.912Z,98674.28
2023-03-13T22:17:20.343Z,98675.06
2023-03-13T22:19:47.208Z,98663.09
2023-03-13T22:22:14.212Z,98667.09
2023-03-13T22:24:40.853Z,98668.69
2023-03-13T22:27:09.060Z,98663.84
2023-03-13T22:29:35.822Z,98642.84
2023-03-13T22:32:02.657Z,98650.59
2023-03-13T22:34:29.454Z,98633.75
2023-03-13T22:36:56.158Z,98625.78
2023-03-13T22:39:22.928Z,98610.28
2023-03-13T22:41:49.622Z,98618.38
2023-03-13T22:44:16.530Z,98616.34
2023-03-13T22:46:43.408Z,98625.06
2023-03-13T22:49:10.106Z,98630.09
2023-03-13T22:51:36.836Z,98602.78
2023-03-13T22:54:03.686Z,98628.19
2023-03-13T22:56:30.242Z,98611.94
2023-03-13T22:58:56.915Z,98610.44
2023-03-13T23:01:23.673Z,98622.16
2023-03-13T23:03:50.318Z,98646.59
2023-03-13T23:06:19.042Z,98653.72
2023-03-13T23:08:45.866Z,98643.34
2023-03-13T23:11:12.577Z,98653.19
2023-03-13T23:13:39.297Z,98650.81
2023-03-13T23:16:09.748Z,98661.81
2023-03-13T23:18:36.556Z,98675.56
2023-03-13T23:21:07.918Z,98672.09
2023-03-13T23:23:34.669Z,98677.94
2023-03-13T23:26:05.885Z,98667.72
2023-03-13T23:28:33.652Z,98668.91
2023-03-13T23:31:00.873Z,98674.75
2023-03-13T23:33:28.575Z,98683.34
2023-03-13T23:35:55.274Z,98689.31
2023-03-13T23:38:24.016Z,98669.34
2023-03-13T23:40:50.646Z,98670.41
2023-03-13T23:43:17.261Z,98673.94
2023-03-13T23:45:43.890Z,98661.09
2023-03-13T23:48:10.490Z,98678.00
2023-03-13T23:50:37.121Z,98685.72
2023-03-13T23:53:03.741Z,98693.63
2023-03-13T23:55:30.307Z,98700.72
2023-03-13T23:57:56.878Z,98698.19
